createdAt,value
2023-04-07T00:01:44.910Z,12.74
2023-04-07T00:04:11.781Z,12.68
2023-04-07T00:06:38.584Z,12.61
2023-04-07T00:09:05.300Z,12.55
2023-04-07T00:11:32.119Z,12.47
2023-04-07T00:13:58.935Z,12.44
2023-04-07T00:16:27.447Z,12.28
2023-04-07T00:18:54.207Z,12.27
2023-04-07T00:21:21.202Z,12.16
2023-04-07T00:23:48.028Z,12.21
2023-04-07T00:26:14.817Z,12.17
2023-04-07T00:28:41.819Z,12.14
2023-04-07T00:31:08.627Z,12.10
2023-04-07T00:33:36.936Z,12.02
2023-04-07T00:36:04.250Z,11.89
2023-04-07T00:38:31.098Z,11.96
2023-04-07T00:40:58.396Z,11.81
2023-04-07T00:43:27.881Z,11.94
2023-04-07T00:45:54.827Z,11.97
2023-04-07T00:48:22.323Z,11.80
2023-04-07T00:50:50.571Z,11.93
2023-04-07T00:53:17.584Z,11.78
2023-04-07T00:55:44.599Z,11.65
2023-04-07T00:58:11.696Z,11.67
2023-04-07T01:00:45.663Z,11.64
2023-04-07T01:03:21.979Z,11.64
2023-04-07T01:05:56.018Z,11.66
2023-04-07T01:08:30.478Z,11.98
2023-04-07T01:11:06.079Z,11.93
2023-04-07T01:13:37.929Z,11.79
2023-04-07T01:16:11.268Z,11.65
2023-04-07T01:18:40.699Z,11.50
2023-04-07T01:21:14.322Z,11.48
2023-04-07T01:24:01.488Z,11.46
2023-04-07T01:26:31.074Z,11.50
2023-04-07T01:29:34.256Z,11.79
2023-04-07T01:32:04.506Z,11.96
2023-04-07T01:34:33.117Z,11.83
2023-04-07T01:37:03.013Z,11.57
2023-04-07T01:39:36.062Z,11.43
2023-04-07T01:42:06.032Z,11.42
2023-04-07T01:44:33.586Z,11.30
2023-04-07T01:47:02.902Z,11.22
2023-04-07T01:49:31.476Z,11.13
2023-04-07T01:51:58.570Z,11.00
2023-04-07T01:54:26.859Z,11.09
2023-04-07T01:56:53.692Z,11.11
2023-04-07T01:59:20.738Z,10.99
2023-04-07T02:01:48.445Z,10.93
2023-04-07T02:04:26.110Z,10.95
2023-04-07T02:06:58.182Z,11.04
2023-04-07T02:09:28.610Z,11.09
2023-04-07T02:11:57.516Z,11.12
2023-04-07T02:14:25.286Z,11.13
2023-04-07T02:16:53.694Z,11.34
2023-04-07T02:19:23.058Z,11.39
2023-04-07T02:21:52.442Z,11.12
2023-04-07T02:24:20.498Z,11.04
2023-04-07T02:26:47.311Z,11.15
2023-04-07T02:29:14.386Z,11.02
2023-04-07T02:31:41.159Z,10.78
2023-04-07T02:34:07.938Z,10.73
2023-04-07T02:36:36.286Z,10.55
2023-04-07T02:39:03.256Z,10.42
2023-04-07T02:41:30.268Z,10.45
2023-04-07T02:43:57.403Z,10.50
2023-04-07T02:46:24.613Z,10.55
2023-04-07T02:48:51.640Z,10.51
2023-04-07T02:51:18.720Z,10.49
2023-04-07T02:53:47.386Z,10.51
2023-04-07T02:56:16.744Z,10.48
2023-04-07T02:58:44.082Z,10.39
2023-04-07T03:01:11.139Z,10.29
2023-04-07T03:03:38.117Z,10.32
2023-04-07T03:06:05.142Z,10.41
2023-04-07T03:08:32.209Z,10.49
2023-04-07T03:11:00.404Z,10.62
2023-04-07T03:13:27.160Z,10.80
2023-04-07T03:15:54.564Z,10.91
2023-04-07T03:18:21.503Z,10.81
2023-04-07T03:20:48.872Z,10.53
2023-04-07T03:23:16.099Z,10.51
2023-04-07T03:25:42.906Z,10.41
2023-04-07T03:28:11.578Z,10.22
2023-04-07T03:30:38.401Z,10.02
2023-04-07T03:33:05.863Z,9.95
2023-04-07T03:35:32.683Z,10.00
2023-04-07T03:37:59.604Z,10.15
2023-04-07T03:40:26.630Z,10.14
2023-04-07T03:42:54.723Z,10.24
2023-04-07T03:45:23.426Z,10.33
2023-04-07T03:47:50.477Z,10.28
2023-04-07T03:50:17.559Z,10.09
2023-04-07T03:52:44.257Z,10.09
2023-04-07T03:55:11.036Z,10.10
2023-04-07T03:57:38.168Z,10.12
2023-04-07T04:00:06.534Z,10.02
2023-04-07T04:02:35.192Z,10.06
2023-04-07T04:05:02.015Z,10.23
2023-04-07T04:07:29.855Z,9.99
2023-04-07T04:09:56.851Z,9.77
2023-04-07T04:12:23.650Z,9.74
2023-04-07T04:14:52.978Z,9.84
2023-04-07T04:17:19.820Z,9.87
2023-04-07T04:19:48.138Z,9.82
2023-04-07T04:22:15.560Z,9.76
2023-04-07T04:24:42.542Z,9.81
2023-04-07T04:27:09.841Z,9.79
2023-04-07T04:29:36.744Z,9.79
2023-04-07T04:32:03.471Z,9.82
2023-04-07T04:34:31.733Z,10.18
2023-04-07T04:37:00.805Z,10.06
2023-04-07T04:39:27.571Z,9.88
2023-04-07T04:41:54.866Z,9.72
2023-04-07T04:44:23.502Z,9.50
2023-04-07T04:46:50.565Z,9.51
2023-04-07T04:49:17.339Z,9.55
2023-04-07T04:51:44.135Z,9.59
2023-04-07T04:54:12.406Z,9.62
2023-04-07T04:56:40.443Z,9.55
2023-04-07T04:59:07.230Z,9.50
2023-04-07T05:01:35.357Z,9.78
2023-04-07T05:04:02.350Z,9.63
2023-04-07T05:06:29.207Z,9.58
2023-04-07T05:08:56.077Z,9.63
2023-04-07T05:11:24.525Z,9.36
2023-04-07T05:13:51.784Z,9.40
2023-04-07T05:16:18.800Z,9.42
2023-04-07T05:18:45.870Z,9.43
2023-04-07T05:21:12.663Z,9.40
2023-04-07T05:23:39.589Z,9.39
2023-04-07T05:26:07.754Z,9.37
2023-04-07T05:28:36.443Z,9.40
2023-04-07T05:31:05.729Z,9.39
2023-04-07T05:33:34.810Z,9.42
2023-04-07T05:36:01.590Z,9.45
2023-04-07T05:38:29.651Z,9.42
2023-04-07T05:40:56.692Z,9.38
2023-04-07T05:43:23.726Z,9.43
2023-04-07T05:45:52.107Z,9.57
2023-04-07T05:48:19.211Z,9.64
2023-04-07T05:50:46.295Z,9.77
2023-04-07T05:53:13.064Z,9.80
2023-04-07T05:55:43.029Z,9.85
2023-04-07T05:58:09.742Z,9.90
2023-04-07T06:00:36.797Z,9.88
2023-04-07T06:03:05.765Z,10.05
2023-04-07T06:05:33.452Z,10.14
2023-04-07T06:08:00.374Z,10.30
2023-04-07T06:10:27.887Z,10.46
2023-04-07T06:12:55.106Z,10.57
2023-04-07T06:15:22.895Z,10.79
2023-04-07T06:17:49.655Z,10.87
2023-04-07T06:20:18.063Z,11.03
2023-04-07T06:22:45.868Z,11.27
2023-04-07T06:25:12.671Z,11.58
2023-04-07T06:27:39.863Z,11.80
2023-04-07T06:30:08.678Z,11.99
2023-04-07T06:32:35.727Z,12.26
2023-04-07T06:35:03.057Z,12.64
2023-04-07T06:37:31.423Z,13.14
2023-04-07T06:39:58.371Z,13.59
2023-04-07T06:42:25.593Z,14.10
2023-04-07T06:44:53.088Z,14.65
2023-04-07T06:47:19.880Z,15.24
2023-04-07T06:49:46.581Z,15.94
2023-04-07T06:52:13.596Z,16.23
2023-04-07T06:54:41.957Z,16.64
2023-04-07T06:57:09.440Z,17.26
2023-04-07T06:59:43.635Z,17.47
2023-04-07T07:02:10.730Z,17.46
2023-04-07T07:04:37.852Z,17.40
2023-04-07T07:07:04.741Z,17.42
2023-04-07T07:09:34.125Z,17.67
2023-04-07T07:12:03.991Z,18.44
2023-04-07T07:14:31.373Z,19.52
2023-04-07T07:16:58.527Z,20.00
2023-04-07T07:19:25.756Z,20.49
2023-04-07T07:21:53.427Z,21.13
2023-04-07T07:24:20.518Z,21.52
2023-04-07T07:26:47.843Z,21.77
2023-04-07T07:29:16.596Z,22.43
2023-04-07T07:31:46.701Z,22.90
2023-04-07T07:34:13.426Z,23.51
2023-04-07T07:36:40.505Z,23.91
2023-04-07T07:39:07.784Z,23.96
2023-04-07T07:41:34.834Z,23.37
2023-04-07T07:44:01.650Z,22.85
2023-04-07T07:46:31.802Z,22.89
2023-04-07T07:48:58.786Z,23.04
2023-04-07T07:51:25.922Z,22.96
2023-04-07T07:53:53.813Z,23.71
2023-04-07T07:56:20.857Z,24.11
2023-04-07T07:58:48.382Z,23.93
2023-04-07T08:01:15.534Z,23.53
2023-04-07T08:03:45.115Z,23.33
2023-04-07T08:06:13.397Z,22.90
2023-04-07T08:08:40.569Z,22.51
2023-04-07T08:11:07.423Z,22.34
2023-04-07T08:13:37.419Z,22.36
2023-04-07T08:16:04.862Z,21.91
2023-04-07T08:18:31.713Z,22.05
2023-04-07T08:21:00.007Z,21.67
2023-04-07T08:23:27.034Z,21.58
2023-04-07T08:25:54.032Z,21.66
2023-04-07T08:28:24.407Z,21.24
2023-04-07T08:30:51.148Z,21.67
2023-04-07T08:33:17.868Z,21.43
2023-04-07T08:35:45.042Z,22.33
2023-04-07T08:38:13.333Z,22.43
2023-04-07T08:40:40.562Z,22.76
2023-04-07T08:43:09.985Z,22.96
2023-04-07T08:45:40.532Z,23.09
2023-04-07T08:48:16.078Z,23.40
2023-04-07T08:50:45.619Z,24.15
2023-04-07T08:53:18.886Z,24.45
2023-04-07T08:55:45.982Z,23.49
2023-04-07T08:58:14.882Z,23.93
2023-04-07T09:00:44.004Z,23.21
2023-04-07T09:03:11.986Z,22.88
2023-04-07T09:05:39.308Z,23.41
2023-04-07T09:08:06.415Z,24.55
2023-04-07T09:10:36.558Z,24.28
2023-04-07T09:13:03.414Z,23.84
2023-04-07T09:15:31.426Z,23.87
2023-04-07T09:17:58.789Z,24.67
2023-04-07T09:20:25.867Z,25.04
2023-04-07T09:22:52.628Z,25.97
2023-04-07T09:25:21.235Z,26.29
2023-04-07T09:28:03.888Z,25.48
2023-04-07T09:30:32.526Z,25.87
2023-04-07T09:33:00.590Z,26.10
2023-04-07T09:35:27.647Z,26.65
2023-04-07T09:38:05.505Z,26.13
2023-04-07T09:40:33.107Z,25.13
2023-04-07T09:43:02.891Z,24.03
2023-04-07T09:45:35.435Z,23.70
2023-04-07T09:48:06.824Z,24.64
2023-04-07T09:50:34.747Z,24.99
2023-04-07T09:53:02.045Z,25.08
2023-04-07T09:55:29.102Z,24.01
2023-04-07T09:57:55.909Z,23.35
2023-04-07T10:00:24.847Z,23.87
2023-04-07T10:02:53.266Z,24.48
2023-04-07T10:05:21.379Z,24.78
2023-04-07T10:07:48.758Z,24.78
2023-04-07T10:10:16.422Z,24.67
2023-04-07T10:12:44.361Z,23.73
2023-04-07T10:15:13.210Z,23.22
2023-04-07T10:17:45.663Z,22.79
2023-04-07T10:20:13.689Z,22.38
2023-04-07T10:22:42.594Z,22.82
2023-04-07T10:25:12.320Z,23.00
2023-04-07T10:27:43.441Z,22.63
2023-04-07T10:30:15.954Z,22.86
2023-04-07T10:32:50.598Z,23.02
2023-04-07T10:35:18.972Z,23.65
2023-04-07T10:38:11.449Z,23.98
2023-04-07T10:40:39.031Z,24.15
2023-04-07T10:43:07.198Z,24.27
2023-04-07T10:45:58.365Z,24.40
2023-04-07T10:48:27.591Z,24.35
2023-04-07T10:51:14.990Z,24.61
2023-04-07T10:54:15.778Z,24.39
2023-04-07T10:57:08.317Z,24.45
2023-04-07T10:59:35.473Z,24.80
2023-04-07T11:02:35.477Z,23.54
2023-04-07T11:05:04.766Z,23.23
2023-04-07T11:07:55.331Z,23.63
2023-04-07T11:10:23.438Z,23.52
2023-04-07T11:13:06.294Z,23.46
2023-04-07T11:15:34.730Z,23.59
2023-04-07T11:18:23.451Z,24.10
2023-04-07T11:20:54.559Z,23.74
2023-04-07T11:23:22.854Z,23.28
2023-04-07T11:25:52.499Z,23.17
2023-04-07T11:28:20.430Z,23.13
2023-04-07T11:30:50.921Z,23.21
2023-04-07T11:33:20.739Z,22.60
2023-04-07T11:36:05.342Z,23.10
2023-04-07T11:38:37.617Z,23.93
2023-04-07T11:41:14.226Z,24.49
2023-04-07T11:43:42.554Z,24.15
2023-04-07T11:46:11.879Z,23.98
2023-04-07T11:48:41.096Z,24.79
2023-04-07T11:51:17.512Z,24.68
2023-04-07T11:53:45.837Z,23.98
2023-04-07T11:56:15.845Z,22.79
2023-04-07T11:58:49.811Z,22.80
2023-04-07T12:01:16.967Z,23.23
2023-04-07T12:03:57.983Z,24.79
2023-04-07T12:06:34.309Z,25.40
2023-04-07T12:09:03.207Z,25.60
2023-04-07T12:11:37.459Z,25.31
2023-04-07T12:14:08.451Z,25.47
2023-04-07T12:16:40.428Z,25.93
2023-04-07T12:19:09.823Z,25.08
2023-04-07T12:21:39.838Z,24.58
2023-04-07T12:24:07.345Z,24.22
2023-04-07T12:26:35.052Z,24.89
2023-04-07T12:29:02.462Z,24.40
2023-04-07T12:31:29.976Z,24.37
2023-04-07T12:33:57.687Z,25.65
2023-04-07T12:36:24.603Z,25.74
2023-04-07T12:38:54.982Z,25.35
2023-04-07T12:41:22.625Z,25.07
2023-04-07T12:43:51.099Z,25.32
2023-04-07T12:46:18.998Z,24.81
2023-04-07T12:48:47.914Z,23.77
2023-04-07T12:51:15.832Z,23.71
2023-04-07T12:53:43.617Z,23.68
2023-04-07T12:56:12.759Z,24.29
2023-04-07T12:58:40.835Z,24.69
2023-04-07T13:01:08.105Z,23.80
2023-04-07T13:03:36.559Z,23.02
2023-04-07T13:06:05.432Z,23.22
2023-04-07T13:08:32.240Z,23.20
2023-04-07T13:10:59.770Z,23.82
2023-04-07T13:13:28.928Z,24.15
2023-04-07T13:15:55.845Z,24.41
2023-04-07T13:18:23.530Z,24.29
2023-04-07T13:21:03.018Z,24.18
2023-04-07T13:23:43.371Z,24.26
2023-04-07T13:26:17.156Z,24.26
2023-04-07T13:28:46.028Z,24.03
2023-04-07T13:31:13.689Z,23.75
2023-04-07T13:33:41.104Z,23.30
2023-04-07T13:36:08.636Z,23.18
2023-04-07T13:38:36.393Z,23.38
2023-04-07T13:41:03.492Z,22.66
2023-04-07T13:43:31.401Z,23.12
2023-04-07T13:46:03.102Z,23.79
2023-04-07T13:48:31.692Z,24.61
2023-04-07T13:51:00.210Z,25.22
2023-04-07T13:53:27.877Z,25.20
2023-04-07T13:56:00.745Z,25.10
2023-04-07T13:58:31.630Z,25.18
2023-04-07T14:01:01.574Z,24.96
2023-04-07T14:03:29.241Z,24.57
2023-04-07T14:05:56.875Z,23.94
2023-04-07T14:08:24.789Z,23.58
2023-04-07T14:10:53.649Z,23.05
2023-04-07T14:13:21.109Z,22.88
2023-04-07T14:15:49.036Z,23.56
2023-04-07T14:18:18.437Z,24.31
2023-04-07T14:20:46.007Z,24.54
2023-04-07T14:23:16.648Z,24.66
2023-04-07T14:25:47.965Z,24.74
2023-04-07T14:28:15.441Z,24.96
2023-04-07T14:30:42.857Z,25.32
2023-04-07T14:33:11.052Z,25.34
2023-04-07T14:35:40.600Z,25.46
2023-04-07T14:38:09.141Z,24.50
2023-04-07T14:40:36.621Z,24.46
2023-04-07T14:43:07.391Z,24.51
2023-04-07T14:45:36.629Z,24.40
2023-04-07T14:48:04.630Z,24.23
2023-04-07T14:50:33.747Z,24.31
2023-04-07T14:53:02.055Z,24.66
2023-04-07T14:55:29.386Z,24.61
2023-04-07T14:57:58.612Z,24.55
2023-04-07T15:00:26.830Z,24.92
2023-04-07T15:02:56.131Z,24.44
2023-04-07T15:05:24.018Z,23.82
2023-04-07T15:07:53.916Z,24.33
2023-04-07T15:10:23.938Z,24.46
2023-04-07T15:12:51.667Z,23.56
2023-04-07T15:15:19.362Z,23.57
2023-04-07T15:17:46.164Z,23.50
2023-04-07T15:20:13.805Z,23.31
2023-04-07T15:22:41.932Z,23.29
2023-04-07T15:25:10.066Z,24.10
2023-04-07T15:27:39.452Z,24.81
2023-04-07T15:30:08.678Z,25.38
2023-04-07T15:32:36.079Z,25.13
2023-04-07T15:35:03.925Z,24.91
2023-04-07T15:37:35.196Z,24.81
2023-04-07T15:40:03.163Z,24.89
2023-04-07T15:42:30.826Z,25.07
2023-04-07T15:44:59.873Z,25.10
2023-04-07T15:47:29.121Z,25.01
2023-04-07T15:49:56.950Z,24.84
2023-04-07T15:52:28.905Z,24.50
2023-04-07T15:54:56.565Z,24.44
2023-04-07T15:57:24.027Z,23.94
2023-04-07T15:59:51.690Z,23.94
2023-04-07T16:02:20.213Z,23.68
2023-04-07T16:04:49.281Z,23.93
2023-04-07T16:07:17.168Z,24.28
2023-04-07T16:09:44.880Z,24.03
2023-04-07T16:12:12.527Z,23.74
2023-04-07T16:14:40.129Z,23.87
2023-04-07T16:17:08.074Z,23.84
2023-04-07T16:19:39.800Z,23.96
2023-04-07T16:22:07.576Z,23.75
2023-04-07T16:24:36.030Z,23.87
2023-04-07T16:27:04.378Z,23.86
2023-04-07T16:29:32.686Z,23.84
2023-04-07T16:32:03.040Z,24.00
2023-04-07T16:34:30.645Z,24.01
2023-04-07T16:36:59.679Z,23.71
2023-04-07T16:39:29.276Z,23.81
2023-04-07T16:41:57.427Z,23.81
2023-04-07T16:44:27.394Z,23.96
2023-04-07T16:46:55.910Z,24.02
2023-04-07T16:49:24.029Z,24.06
2023-04-07T16:51:51.438Z,23.96
2023-04-07T16:54:21.539Z,23.93
2023-04-07T16:56:50.551Z,24.12
2023-04-07T16:59:19.131Z,24.22
2023-04-07T17:01:47.390Z,24.34
2023-04-07T17:04:16.323Z,24.43
2023-04-07T17:06:43.881Z,24.29
2023-04-07T17:09:11.442Z,24.19
2023-04-07T17:11:41.895Z,24.33
2023-04-07T17:14:09.542Z,24.29
2023-04-07T17:16:37.489Z,24.15
2023-04-07T17:19:05.417Z,24.11
2023-04-07T17:21:32.284Z,23.52
2023-04-07T17:23:59.717Z,22.93
2023-04-07T17:26:27.166Z,22.29
2023-04-07T17:28:56.553Z,22.33
2023-04-07T17:31:24.438Z,22.27
2023-04-07T17:33:52.047Z,22.41
2023-04-07T17:36:20.359Z,22.31
2023-04-07T17:38:48.132Z,22.09
2023-04-07T17:41:15.376Z,21.95
2023-04-07T17:43:42.940Z,21.97
2023-04-07T17:46:12.346Z,21.92
2023-04-07T17:48:41.676Z,21.94
2023-04-07T17:51:09.826Z,21.89
2023-04-07T17:53:37.837Z,21.74
2023-04-07T17:56:05.982Z,21.71
2023-04-07T17:58:34.010Z,21.48
2023-04-07T18:01:01.771Z,21.34
2023-04-07T18:03:36.451Z,21.10
2023-04-07T18:06:04.254Z,20.84
2023-04-07T18:08:31.982Z,20.91
2023-04-07T18:10:59.617Z,20.77
2023-04-07T18:13:26.768Z,20.59
2023-04-07T18:15:54.600Z,20.49
2023-04-07T18:18:22.674Z,20.39
2023-04-07T18:20:52.321Z,20.26
2023-04-07T18:23:20.175Z,20.15
2023-04-07T18:25:48.295Z,20.09
2023-04-07T18:28:15.859Z,20.04
2023-04-07T18:30:44.452Z,19.90
2023-04-07T18:33:14.450Z,19.81
2023-04-07T18:35:43.778Z,19.75
2023-04-07T18:38:12.112Z,19.63
2023-04-07T18:40:41.445Z,19.64
2023-04-07T18:43:08.945Z,19.43
2023-04-07T18:45:36.591Z,19.39
2023-04-07T18:48:04.889Z,19.29
2023-04-07T18:50:33.040Z,19.19
2023-04-07T18:53:00.795Z,19.02
2023-04-07T18:55:31.249Z,18.87
2023-04-07T18:57:58.445Z,18.69
2023-04-07T19:00:25.743Z,18.61
2023-04-07T19:02:56.870Z,18.51
2023-04-07T19:05:26.180Z,18.39
2023-04-07T19:07:53.478Z,18.31
2023-04-07T19:10:22.263Z,18.20
2023-04-07T19:12:53.172Z,18.14
2023-04-07T19:15:20.460Z,18.00
2023-04-07T19:17:48.191Z,17.96
2023-04-07T19:20:15.091Z,17.87
2023-04-07T19:22:43.402Z,17.77
2023-04-07T19:25:11.100Z,17.68
2023-04-07T19:27:38.737Z,17.68
2023-04-07T19:30:09.048Z,17.55
2023-04-07T19:32:37.047Z,17.53
2023-04-07T19:35:05.009Z,17.36
2023-04-07T19:37:32.826Z,17.32
2023-04-07T19:40:03.242Z,17.30
2023-04-07T19:42:30.451Z,17.26
2023-04-07T19:44:58.531Z,17.14
2023-04-07T19:47:29.336Z,17.02
2023-04-07T19:49:56.176Z,16.80
2023-04-07T19:52:23.088Z,16.56
2023-04-07T19:54:52.102Z,16.45
2023-04-07T19:57:19.739Z,16.40
2023-04-07T19:59:46.918Z,16.34
2023-04-07T20:02:14.263Z,16.23
2023-04-07T20:04:44.025Z,16.18
2023-04-07T20:07:11.933Z,16.14
2023-04-07T20:09:39.707Z,16.05
2023-04-07T20:12:07.236Z,15.99
2023-04-07T20:14:34.854Z,15.93
2023-04-07T20:17:02.647Z,15.90
2023-04-07T20:19:30.041Z,15.88
2023-04-07T20:21:59.208Z,15.86
2023-04-07T20:24:26.674Z,16.17
2023-04-07T20:26:53.926Z,16.19
2023-04-07T20:29:22.331Z,15.98
2023-04-07T20:31:50.086Z,15.76
2023-04-07T20:34:17.181Z,15.58
2023-04-07T20:36:44.992Z,15.51
2023-04-07T20:39:13.798Z,15.49
2023-04-07T20:41:41.206Z,15.46
2023-04-07T20:44:08.861Z,15.36
2023-04-07T20:46:35.740Z,15.29
2023-04-07T20:49:03.666Z,15.11
2023-04-07T20:51:31.696Z,15.09
2023-04-07T20:53:59.607Z,15.05
2023-04-07T20:56:28.023Z,14.95
2023-04-07T20:58:55.745Z,14.94
2023-04-07T21:01:23.212Z,14.94
2023-04-07T21:03:50.057Z,14.99
2023-04-07T21:06:18.591Z,14.94
2023-04-07T21:08:45.440Z,14.91
2023-04-07T21:11:13.284Z,14.83
2023-04-07T21:13:43.154Z,14.74
2023-04-07T21:16:12.548Z,14.67
2023-04-07T21:18:39.908Z,14.64
2023-04-07T21:21:07.764Z,14.64
2023-04-07T21:23:35.211Z,14.44
2023-04-07T21:26:02.527Z,14.44
2023-04-07T21:28:30.569Z,14.35
2023-04-07T21:30:59.907Z,14.36
2023-04-07T21:33:27.260Z,14.40
2023-04-07T21:35:55.083Z,14.27
2023-04-07T21:38:22.989Z,14.13
2023-04-07T21:40:50.450Z,14.10
2023-04-07T21:43:18.133Z,14.08
2023-04-07T21:45:45.899Z,14.12
2023-04-07T21:48:14.452Z,14.05
2023-04-07T21:50:42.568Z,14.00
2023-04-07T21:53:09.835Z,13.81
2023-04-07T21:55:37.360Z,13.89
2023-04-07T21:58:04.274Z,13.91
2023-04-07T22:00:31.746Z,14.03
2023-04-07T22:02:58.712Z,14.25
2023-04-07T22:05:28.043Z,14.32
2023-04-07T22:07:55.676Z,14.33
2023-04-07T22:10:24.642Z,14.38
2023-04-07T22:12:52.402Z,14.41
2023-04-07T22:15:20.218Z,14.40
2023-04-07T22:17:47.677Z,14.44
2023-04-07T22:20:15.619Z,14.38
2023-04-07T22:22:44.559Z,14.32
2023-04-07T22:25:12.716Z,14.32
2023-04-07T22:27:40.109Z,14.48
2023-04-07T22:30:08.938Z,14.37
2023-04-07T22:32:37.201Z,14.18
2023-04-07T22:35:05.265Z,14.05
2023-04-07T22:37:32.926Z,13.92
2023-04-07T22:40:04.220Z,13.82
2023-04-07T22:42:31.630Z,13.91
2023-04-07T22:44:59.459Z,13.90
2023-04-07T22:47:27.691Z,13.94
2023-04-07T22:49:54.698Z,14.02
2023-04-07T22:52:21.867Z,13.97
2023-04-07T22:54:49.960Z,13.91
2023-04-07T22:57:19.308Z,13.92
2023-04-07T22:59:46.888Z,13.94
2023-04-07T23:02:15.358Z,13.99
2023-04-07T23:04:43.401Z,14.01
2023-04-07T23:07:10.672Z,14.05
2023-04-07T23:09:38.293Z,13.95
2023-04-07T23:12:05.995Z,14.03
2023-04-07T23:14:34.255Z,13.96
2023-04-07T23:17:03.205Z,13.91
2023-04-07T23:19:30.857Z,13.85
2023-04-07T23:21:58.681Z,13.84
2023-04-07T23:24:26.573Z,13.89
2023-04-07T23:26:53.805Z,13.85
2023-04-07T23:29:21.354Z,13.73
2023-04-07T23:31:51.578Z,13.95
2023-04-07T23:34:18.873Z,14.15
2023-04-07T23:36:46.570Z,14.17
2023-04-07T23:39:13.517Z,14.31
2023-04-07T23:41:41.329Z,14.19
2023-04-07T23:44:08.952Z,14.16
2023-04-07T23:46:36.108Z,14.07
2023-04-07T23:49:05.079Z,14.02
2023-04-07T23:51:32.413Z,14.06
2023-04-07T23:54:00.245Z,14.24
2023-04-07T23:56:27.593Z,14.49
2023-04-07T23:58:55.011Z,14.40
